sensor_id;sensor_type;location;lat;lon;timestamp;P1;P2;P0
28647;PMS5003;17137;51.494;-0.262;2023-01-31T00:00:06;8;4;
28647;PMS5003;17137;51.494;-0.262;2023-01-31T00:00:38;8;4;
28647;PMS5003;17137;51.494;-0.262;2023-01-31T00:01:10;8;5;
28647;PMS5003;17137;51.494;-0.262;2023-01-31T00:01:42;8;5;
28647;PMS5003;17137;51.494;-0.262;2023-01-31T00:02:12;8;5;
28647;PMS5003;17137;51.494;-0.262;2023-01-31T00:02:42;8;4;
28647;PMS5003;17137;51.494;-0.262;2023-01-31T00:03:13;8;4;
28647;PMS5003;17137;51.494;-0.262;2023-01-31T00:03:43;8;4;
28647;PMS5003;17137;51.494;-0.262;2023-01-31T00:04:13;10;5;
28647;PMS5003;17137;51.494;-0.262;2023-01-31T00:04:44;10;5;
28647;PMS5003;17137;51.494;-0.262;2023-01-31T00:05:14;10;5;
28647;PMS5003;17137;51.494;-0.262;2023-01-31T00:05:44;11;5;
28647;PMS5003;17137;51.494;-0.262;2023-01-31T00:06:16;11;5;
28647;PMS5003;17137;51.494;-0.262;2023-01-31T00:06:47;11;5;
28647;PMS5003;17137;51.494;-0.262;2023-01-31T00:07:17;11;6;
28647;PMS5003;17137;51.494;-0.262;2023-01-31T00:07:48;11;6;
28647;PMS5003;17137;51.494;-0.262;2023-01-31T00:08:18;11;6;
28647;PMS5003;17137;51.494;-0.262;2023-01-31T00:08:49;9;5;
28647;PMS5003;17137;51.494;-0.262;2023-01-31T00:09:20;9;5;
28647;PMS5003;17137;51.494;-0.262;2023-01-31T00:09:50;9;5;
28647;PMS5003;17137;51.494;-0.262;2023-01-31T00:10:21;9;5;
28647;PMS5003;17137;51.494;-0.262;2023-01-31T00:10:51;9;5;
28647;PMS5003;17137;51.494;-0.262;2023-01-31T00:11:22;9;5;
28647;PMS5003;17137;51.494;-0.262;2023-01-31T00:11:54;9;5;
28647;PMS5003;17137;51.494;-0.262;2023-01-31T00:12:24;9;5;
28647;PMS5003;17137;51.494;-0.262;2023-01-31T00:12:55;9;5;
28647;PMS5003;17137;51.494;-0.262;2023-01-31T00:13:28;11;6;
28647;PMS5003;17137;51.494;-0.262;2023-01-31T00:13:58;11;6;
28647;PMS5003;17137;51.494;-0.262;2023-01-31T00:14:29;11;6;
28647;PMS5003;17137;51.494;-0.262;2023-01-31T00:15:00;11;6;
28647;PMS5003;17137;51.494;-0.262;2023-01-31T00:15:30;11;6;
28647;PMS5003;17137;51.494;-0.262;2023-01-31T00:16:00;11;6;
28647;PMS5003;17137;51.494;-0.262;2023-01-31T00:16:31;11;5;
28647;PMS5003;17137;51.494;-0.262;2023-01-31T00:17:02;11;5;
28647;PMS5003;17137;51.494;-0.262;2023-01-31T00:17:32;11;5;
28647;PMS5003;17137;51.494;-0.262;2023-01-31T00:18:02;11;5;
28647;PMS5003;17137;51.494;-0.262;2023-01-31T00:18:33;11;5;
28647;PMS5003;17137;51.494;-0.262;2023-01-31T00:19:04;11;5;
28647;PMS5003;17137;51.494;-0.262;2023-01-31T00:19:34;10;5;
28647;PMS5003;17137;51.494;-0.262;2023-01-31T00:20:04;10;5;
28647;PMS5003;17137;51.494;-0.262;2023-01-31T00:20:36;10;5;
28647;PMS5003;17137;51.494;-0.262;2023-01-31T00:21:07;10;4;
28647;PMS5003;17137;51.494;-0.262;2023-01-31T00:21:39;10;4;
28647;PMS5003;17137;51.494;-0.262;2023-01-31T00:22:10;10;4;
28647;PMS5003;17137;51.494;-0.262;2023-01-31T00:22:40;9;3;
28647;PMS5003;17137;51.494;-0.262;2023-01-31T00:23:10;9;3;
28647;PMS5003;17137;51.494;-0.262;2023-01-31T00:23:41;9;3;
28647;PMS5003;17137;51.494;-0.262;2023-01-31T00:24:17;9;3;
28647;PMS5003;17137;51.494;-0.262;2023-01-31T00:24:48;9;3;
28647;PMS5003;17137;51.494;-0.262;2023-01-31T00:25:18;9;3;
28647;PMS5003;17137;51.494;-0.262;2023-01-31T00:25:48;11;4;
28647;PMS5003;17137;51.494;-0.262;2023-01-31T00:26:19;11;4;
28647;PMS5003;17137;51.494;-0.262;2023-01-31T00:26:51;11;4;
28647;PMS5003;17137;51.494;-0.262;2023-01-31T00:27:21;11;4;
28647;PMS5003;17137;51.494;-0.262;2023-01-31T00:27:51;11;4;
28647;PMS5003;17137;51.494;-0.262;2023-01-31T00:28:22;11;4;
28647;PMS5003;17137;51.494;-0.262;2023-01-31T00:28:52;8;4;
28647;PMS5003;17137;51.494;-0.262;2023-01-31T00:29:23;8;4;
28647;PMS5003;17137;51.494;-0.262;2023-01-31T00:29:54;8;4;
28647;PMS5003;17137;51.494;-0.262;2023-01-31T00:30:24;9;4;
28647;PMS5003;17137;51.494;-0.262;2023-01-31T00:30:57;9;4;
28647;PMS5003;17137;51.494;-0.262;2023-01-31T00:31:27;9;4;
28647;PMS5003;17137;51.494;-0.262;2023-01-31T00:31:59;9;5;
28647;PMS5003;17137;51.494;-0.262;2023-01-31T00:32:29;9;5;
28647;PMS5003;17137;51.494;-0.262;2023-01-31T00:32:59;9;5;
28647;PMS5003;17137;51.494;-0.262;2023-01-31T00:33:29;9;5;
28647;PMS5003;17137;51.494;-0.262;2023-01-31T00:34:00;9;5;
28647;PMS5003;17137;51.494;-0.262;2023-01-31T00:34:31;9;5;
28647;PMS5003;17137;51.494;-0.262;2023-01-31T00:35:01;8;6;
28647;PMS5003;17137;51.494;-0.262;2023-01-31T00:35:32;8;6;
28647;PMS5003;17137;51.494;-0.262;2023-01-31T00:36:03;8;6;
28647;PMS5003;17137;51.494;-0.262;2023-01-31T00:36:34;7;5;
28647;PMS5003;17137;51.494;-0.262;2023-01-31T00:37:04;7;5;
28647;PMS5003;17137;51.494;-0.262;2023-01-31T00:37:34;7;5;
28647;PMS5003;17137;51.494;-0.262;2023-01-31T00:38:05;7;6;
28647;PMS5003;17137;51.494;-0.262;2023-01-31T00:38:35;8;7;
28647;PMS5003;17137;51.494;-0.262;2023-01-31T00:39:06;8;7;
28647;PMS5003;17137;51.494;-0.262;2023-01-31T00:39:37;8;5;
28647;PMS5003;17137;51.494;-0.262;2023-01-31T00:40:08;8;5;
28647;PMS5003;17137;51.494;-0.262;2023-01-31T00:40:39;8;5;
28647;PMS5003;17137;51.494;-0.262;2023-01-31T00:41:10;6;5;
28647;PMS5003;17137;51.494;-0.262;2023-01-31T00:41:41;6;5;
28647;PMS5003;17137;51.494;-0.262;2023-01-31T00:42:11;6;5;
28647;PMS5003;17137;51.494;-0.262;2023-01-31T00:42:41;6;5;
28647;PMS5003;17137;51.494;-0.262;2023-01-31T00:43:11;6;5;
28647;PMS5003;17137;51.494;-0.262;2023-01-31T00:43:42;6;5;
28647;PMS5003;17137;51.494;-0.262;2023-01-31T00:44:12;6;5;
28647;PMS5003;17137;51.494;-0.262;2023-01-31T00:44:42;6;5;
28647;PMS5003;17137;51.494;-0.262;2023-01-31T00:45:13;6;5;
28647;PMS5003;17137;51.494;-0.262;2023-01-31T00:45:43;8;5;
28647;PMS5003;17137;51.494;-0.262;2023-01-31T00:46:13;8;5;
28647;PMS5003;17137;51.494;-0.262;2023-01-31T00:46:44;8;5;
28647;PMS5003;17137;51.494;-0.262;2023-01-31T00:47:14;6;4;
28647;PMS5003;17137;51.494;-0.262;2023-01-31T00:47:45;6;4;
28647;PMS5003;17137;51.494;-0.262;2023-01-31T00:48:15;6;4;
28647;PMS5003;17137;51.494;-0.262;2023-01-31T00:48:45;6;4;
28647;PMS5003;17137;51.494;-0.262;2023-01-31T00:49:15;6;4;
28647;PMS5003;17137;51.494;-0.262;2023-01-31T00:49:46;6;4;
28647;PMS5003;17137;51.494;-0.262;2023-01-31T00:50:16;6;4;
28647;PMS5003;17137;51.494;-0.262;2023-01-31T00:50:46;6;4;
28647;PMS5003;17137;51.494;-0.262;2023-01-31T00:51:17;6;4;
28647;PMS5003;17137;51.494;-0.262;2023-01-31T00:51:48;6;4;
28647;PMS5003;17137;51.494;-0.262;2023-01-31T00:52:18;6;4;
28647;PMS5003;17137;51.494;-0.262;2023-01-31T00:52:48;6;4;
28647;PMS5003;17137;51.494;-0.262;2023-01-31T00:53:18;6;4;
28647;PMS5003;17137;51.494;-0.262;2023-01-31T00:53:49;6;4;
28647;PMS5003;17137;51.494;-0.262;2023-01-31T00:54:20;6;4;
28647;PMS5003;17137;51.494;-0.262;2023-01-31T00:54:50;8;4;
28647;PMS5003;17137;51.494;-0.262;2023-01-31T00:55:20;8;4;
28647;PMS5003;17137;51.494;-0.262;2023-01-31T00:55:50;8;4;
28647;PMS5003;17137;51.494;-0.262;2023-01-31T00:56:31;5;5;
28647;PMS5003;17137;51.494;-0.262;2023-01-31T00:57:01;5;5;
28647;PMS5003;17137;51.494;-0.262;2023-01-31T00:57:32;5;5;
28647;PMS5003;17137;51.494;-0.262;2023-01-31T00:58:02;6;5;
28647;PMS5003;17137;51.494;-0.262;2023-01-31T00:58:38;6;5;
28647;PMS5003;17137;51.494;-0.262;2023-01-31T00:59:08;6;5;
28647;PMS5003;17137;51.494;-0.262;2023-01-31T00:59:39;6;4;
28647;PMS5003;17137;51.494;-0.262;2023-01-31T01:00:10;6;4;
28647;PMS5003;17137;51.494;-0.262;2023-01-31T01:00:41;6;4;
28647;PMS5003;17137;51.494;-0.262;2023-01-31T01:01:12;6;4;
28647;PMS5003;17137;51.494;-0.262;2023-01-31T01:01:44;6;4;
28647;PMS5003;17137;51.494;-0.262;2023-01-31T01:02:14;6;4;
28647;PMS5003;17137;51.494;-0.262;2023-01-31T01:02:45;8;5;
28647;PMS5003;17137;51.494;-0.262;2023-01-31T01:03:15;8;5;
28647;PMS5003;17137;51.494;-0.262;2023-01-31T01:03:45;8;5;
28647;PMS5003;17137;51.494;-0.262;2023-01-31T01:04:16;8;5;
28647;PMS5003;17137;51.494;-0.262;2023-01-31T01:04:46;8;5;
28647;PMS5003;17137;51.494;-0.262;2023-01-31T01:05:17;8;5;
28647;PMS5003;17137;51.494;-0.262;2023-01-31T01:05:47;8;5;
28647;PMS5003;17137;51.494;-0.262;2023-01-31T01:06:18;8;5;
28647;PMS5003;17137;51.494;-0.262;2023-01-31T01:06:48;8;5;
28647;PMS5003;17137;51.494;-0.262;2023-01-31T01:07:19;8;5;
28647;PMS5003;17137;51.494;-0.262;2023-01-31T01:07:49;8;5;
28647;PMS5003;17137;51.494;-0.262;2023-01-31T01:08:19;8;5;
28647;PMS5003;17137;51.494;-0.262;2023-01-31T01:08:50;8;5;
28647;PMS5003;17137;51.494;-0.262;2023-01-31T01:09:20;8;5;
28647;PMS5003;17137;51.494;-0.262;2023-01-31T01:09:50;8;5;
28647;PMS5003;17137;51.494;-0.262;2023-01-31T01:10:21;6;5;
28647;PMS5003;17137;51.494;-0.262;2023-01-31T01:10:51;6;5;
28647;PMS5003;17137;51.494;-0.262;2023-01-31T01:11:22;6;5;
28647;PMS5003;17137;51.494;-0.262;2023-01-31T01:11:54;6;5;
28647;PMS5003;17137;51.494;-0.262;2023-01-31T01:12:24;6;5;
28647;PMS5003;17137;51.494;-0.262;2023-01-31T01:12:54;6;5;
28647;PMS5003;17137;51.494;-0.262;2023-01-31T01:13:25;5;5;
28647;PMS5003;17137;51.494;-0.262;2023-01-31T01:13:55;5;5;
28647;PMS5003;17137;51.494;-0.262;2023-01-31T01:14:27;5;5;
28647;PMS5003;17137;51.494;-0.262;2023-01-31T01:14:57;5;5;
28647;PMS5003;17137;51.494;-0.262;2023-01-31T01:15:27;5;5;
28647;PMS5003;17137;51.494;-0.262;2023-01-31T01:16:02;5;5;
28647;PMS5003;17137;51.494;-0.262;2023-01-31T01:16:34;5;5;
28647;PMS5003;17137;51.494;-0.262;2023-01-31T01:17:05;5;5;
28647;PMS5003;17137;51.494;-0.262;2023-01-31T01:17:36;5;5;
28647;PMS5003;17137;51.494;-0.262;2023-01-31T01:18:06;5;4;
28647;PMS5003;17137;51.494;-0.262;2023-01-31T01:18:36;5;4;
28647;PMS5003;17137;51.494;-0.262;2023-01-31T01:19:08;5;4;
28647;PMS5003;17137;51.494;-0.262;2023-01-31T01:19:40;6;4;
28647;PMS5003;17137;51.494;-0.262;2023-01-31T01:20:11;6;4;
28647;PMS5003;17137;51.494;-0.262;2023-01-31T01:20:41;6;4;
28647;PMS5003;17137;51.494;-0.262;2023-01-31T01:21:12;5;4;
28647;PMS5003;17137;51.494;-0.262;2023-01-31T01:21:44;5;4;
28647;PMS5003;17137;51.494;-0.262;2023-01-31T01:22:15;5;4;
28647;PMS5003;17137;51.494;-0.262;2023-01-31T01:22:45;5;3;
28647;PMS5003;17137;51.494;-0.262;2023-01-31T01:23:15;5;3;
28647;PMS5003;17137;51.494;-0.262;2023-01-31T01:23:46;5;3;
28647;PMS5003;17137;51.494;-0.262;2023-01-31T01:24:18;5;3;
28647;PMS5003;17137;51.494;-0.262;2023-01-31T01:24:48;5;3;
28647;PMS5003;17137;51.494;-0.262;2023-01-31T01:25:18;5;3;
28647;PMS5003;17137;51.494;-0.262;2023-01-31T01:25:49;5;3;
28647;PMS5003;17137;51.494;-0.262;2023-01-31T01:26:20;5;3;
28647;PMS5003;17137;51.494;-0.262;2023-01-31T01:26:52;5;3;
28647;PMS5003;17137;51.494;-0.262;2023-01-31T01:27:22;4;3;
28647;PMS5003;17137;51.494;-0.262;2023-01-31T01:27:52;4;3;
28647;PMS5003;17137;51.494;-0.262;2023-01-31T01:28:22;4;3;
28647;PMS5003;17137;51.494;-0.262;2023-01-31T01:28:53;5;3;
28647;PMS5003;17137;51.494;-0.262;2023-01-31T01:29:25;5;3;
28647;PMS5003;17137;51.494;-0.262;2023-01-31T01:29:55;5;3;
28647;PMS5003;17137;51.494;-0.262;2023-01-31T01:30:26;4;3;
28647;PMS5003;17137;51.494;-0.262;2023-01-31T01:30:56;4;3;
28647;PMS5003;17137;51.494;-0.262;2023-01-31T01:31:26;4;3;
28647;PMS5003;17137;51.494;-0.262;2023-01-31T01:31:57;4;3;
28647;PMS5003;17137;51.494;-0.262;2023-01-31T01:32:27;4;3;
28647;PMS5003;17137;51.494;-0.262;2023-01-31T01:32:57;4;3;
28647;PMS5003;17137;51.494;-0.262;2023-01-31T01:33:29;6;3;
28647;PMS5003;17137;51.494;-0.262;2023-01-31T01:34:00;6;3;
28647;PMS5003;17137;51.494;-0.262;2023-01-31T01:34:33;6;3;
28647;PMS5003;17137;51.494;-0.262;2023-01-31T01:35:04;5;3;
28647;PMS5003;17137;51.494;-0.262;2023-01-31T01:35:35;5;3;
28647;PMS5003;17137;51.494;-0.262;2023-01-31T01:36:06;5;3;
28647;PMS5003;17137;51.494;-0.262;2023-01-31T01:36:38;9;4;
28647;PMS5003;17137;51.494;-0.262;2023-01-31T01:37:09;9;4;
28647;PMS5003;17137;51.494;-0.262;2023-01-31T01:37:40;9;4;
28647;PMS5003;17137;51.494;-0.262;2023-01-31T01:38:10;9;4;
28647;PMS5003;17137;51.494;-0.262;2023-01-31T01:38:40;9;4;
28647;PMS5003;17137;51.494;-0.262;2023-01-31T01:39:10;9;4;
28647;PMS5003;17137;51.494;-0.262;2023-01-31T01:39:41;9;4;
28647;PMS5003;17137;51.494;-0.262;2023-01-31T01:40:12;9;4;
28647;PMS5003;17137;51.494;-0.262;2023-01-31T01:40:42;9;4;
28647;PMS5003;17137;51.494;-0.262;2023-01-31T01:41:12;10;4;
28647;PMS5003;17137;51.494;-0.262;2023-01-31T01:41:43;10;4;
28647;PMS5003;17137;51.494;-0.262;2023-01-31T01:42:15;10;4;
28647;PMS5003;17137;51.494;-0.262;2023-01-31T01:42:46;10;5;
28647;PMS5003;17137;51.494;-0.262;2023-01-31T01:43:16;10;5;
28647;PMS5003;17137;51.494;-0.262;2023-01-31T01:43:47;10;5;
28647;PMS5003;17137;51.494;-0.262;2023-01-31T01:44:52;9;4;
28647;PMS5003;17137;51.494;-0.262;2023-01-31T01:45:24;9;4;
28647;PMS5003;17137;51.494;-0.262;2023-01-31T01:45:54;9;4;
28647;PMS5003;17137;51.494;-0.262;2023-01-31T01:46:25;10;5;
28647;PMS5003;17137;51.494;-0.262;2023-01-31T01:46:58;10;5;
28647;PMS5003;17137;51.494;-0.262;2023-01-31T01:47:33;10;5;
28647;PMS5003;17137;51.494;-0.262;2023-01-31T01:48:06;12;5;
28647;PMS5003;17137;51.494;-0.262;2023-01-31T01:48:37;12;5;
28647;PMS5003;17137;51.494;-0.262;2023-01-31T01:49:11;12;5;
28647;PMS5003;17137;51.494;-0.262;2023-01-31T01:49:47;9;5;
28647;PMS5003;17137;51.494;-0.262;2023-01-31T01:50:22;9;5;
28647;PMS5003;17137;51.494;-0.262;2023-01-31T01:50:57;9;5;
28647;PMS5003;17137;51.494;-0.262;2023-01-31T01:51:30;8;4;
28647;PMS5003;17137;51.494;-0.262;2023-01-31T01:52:03;8;4;
28647;PMS5003;17137;51.494;-0.262;2023-01-31T01:52:37;8;4;
28647;PMS5003;17137;51.494;-0.262;2023-01-31T01:53:13;5;4;
28647;PMS5003;17137;51.494;-0.262;2023-01-31T01:53:47;5;4;
28647;PMS5003;17137;51.494;-0.262;2023-01-31T01:54:22;5;4;
28647;PMS5003;17137;51.494;-0.262;2023-01-31T01:54:57;6;5;
28647;PMS5003;17137;51.494;-0.262;2023-01-31T01:55:33;6;5;
28647;PMS5003;17137;51.494;-0.262;2023-01-31T01:56:07;6;5;
28647;PMS5003;17137;51.494;-0.262;2023-01-31T01:56:41;6;4;
28647;PMS5003;17137;51.494;-0.262;2023-01-31T01:57:23;6;4;
28647;PMS5003;17137;51.494;-0.262;2023-01-31T01:57:59;6;4;
28647;PMS5003;17137;51.494;-0.262;2023-01-31T01:58:35;6;5;
28647;PMS5003;17137;51.494;-0.262;2023-01-31T01:59:11;6;5;
28647;PMS5003;17137;51.494;-0.262;2023-01-31T01:59:46;6;5;
28647;PMS5003;17137;51.494;-0.262;2023-01-31T02:00:23;6;5;
28647;PMS5003;17137;51.494;-0.262;2023-01-31T02:00:56;6;5;
28647;PMS5003;17137;51.494;-0.262;2023-01-31T02:01:29;6;5;
28647;PMS5003;17137;51.494;-0.262;2023-01-31T02:02:03;8;5;
28647;PMS5003;17137;51.494;-0.262;2023-01-31T02:02:34;8;5;
28647;PMS5003;17137;51.494;-0.262;2023-01-31T02:03:05;8;5;
28647;PMS5003;17137;51.494;-0.262;2023-01-31T02:03:36;8;4;
28647;PMS5003;17137;51.494;-0.262;2023-01-31T02:04:09;8;4;
28647;PMS5003;17137;51.494;-0.262;2023-01-31T02:04:43;8;4;
28647;PMS5003;17137;51.494;-0.262;2023-01-31T02:05:19;6;3;
28647;PMS5003;17137;51.494;-0.262;2023-01-31T02:05:54;6;3;
28647;PMS5003;17137;51.494;-0.262;2023-01-31T02:06:27;6;3;
28647;PMS5003;17137;51.494;-0.262;2023-01-31T02:06:57;8;4;
28647;PMS5003;17137;51.494;-0.262;2023-01-31T02:07:27;8;4;
28647;PMS5003;17137;51.494;-0.262;2023-01-31T02:07:59;8;4;
28647;PMS5003;17137;51.494;-0.262;2023-01-31T02:08:31;8;4;
28647;PMS5003;17137;51.494;-0.262;2023-01-31T02:09:05;8;4;
28647;PMS5003;17137;51.494;-0.262;2023-01-31T02:09:43;8;4;
28647;PMS5003;17137;51.494;-0.262;2023-01-31T02:10:21;6;3;
28647;PMS5003;17137;51.494;-0.262;2023-01-31T02:10:58;6;3;
28647;PMS5003;17137;51.494;-0.262;2023-01-31T02:11:31;6;3;
28647;PMS5003;17137;51.494;-0.262;2023-01-31T02:12:02;8;3;
28647;PMS5003;17137;51.494;-0.262;2023-01-31T02:12:32;8;3;
28647;PMS5003;17137;51.494;-0.262;2023-01-31T02:13:04;8;3;
28647;PMS5003;17137;51.494;-0.262;2023-01-31T02:13:35;8;3;
28647;PMS5003;17137;51.494;-0.262;2023-01-31T02:14:08;8;3;
28647;PMS5003;17137;51.494;-0.262;2023-01-31T02:14:40;8;3;
28647;PMS5003;17137;51.494;-0.262;2023-01-31T02:15:11;6;2;
28647;PMS5003;17137;51.494;-0.262;2023-01-31T02:15:41;6;2;
28647;PMS5003;17137;51.494;-0.262;2023-01-31T02:16:12;6;2;
28647;PMS5003;17137;51.494;-0.262;2023-01-31T02:16:42;6;2;
28647;PMS5003;17137;51.494;-0.262;2023-01-31T02:17:13;6;2;
28647;PMS5003;17137;51.494;-0.262;2023-01-31T02:17:46;6;2;
28647;PMS5003;17137;51.494;-0.262;2023-01-31T02:18:16;8;2;
28647;PMS5003;17137;51.494;-0.262;2023-01-31T02:18:49;8;2;
28647;PMS5003;17137;51.494;-0.262;2023-01-31T02:19:21;8;2;
28647;PMS5003;17137;51.494;-0.262;2023-01-31T02:20:05;9;2;
28647;PMS5003;17137;51.494;-0.262;2023-01-31T02:21:01;9;2;
28647;PMS5003;17137;51.494;-0.262;2023-01-31T02:22:03;9;2;
28647;PMS5003;17137;51.494;-0.262;2023-01-31T02:22:41;8;2;
28647;PMS5003;17137;51.494;-0.262;2023-01-31T02:23:23;8;2;
28647;PMS5003;17137;51.494;-0.262;2023-01-31T02:24:17;8;2;
28647;PMS5003;17137;51.494;-0.262;2023-01-31T02:25:15;8;2;
28647;PMS5003;17137;51.494;-0.262;2023-01-31T02:26:18;8;2;
28647;PMS5003;17137;51.494;-0.262;2023-01-31T02:27:12;8;2;
28647;PMS5003;17137;51.494;-0.262;2023-01-31T02:28:03;9;2;
28647;PMS5003;17137;51.494;-0.262;2023-01-31T02:28:54;9;2;
28647;PMS5003;17137;51.494;-0.262;2023-01-31T02:29:48;9;2;
28647;PMS5003;17137;51.494;-0.262;2023-01-31T02:30:47;10;2;
28647;PMS5003;17137;51.494;-0.262;2023-01-31T02:31:53;10;2;
28647;PMS5003;17137;51.494;-0.262;2023-01-31T02:32:35;10;2;
28647;PMS5003;17137;51.494;-0.262;2023-01-31T02:33:18;9;3;
28647;PMS5003;17137;51.494;-0.262;2023-01-31T02:33:55;9;3;
28647;PMS5003;17137;51.494;-0.262;2023-01-31T02:34:34;9;3;
28647;PMS5003;17137;51.494;-0.262;2023-01-31T02:35:12;9;3;
28647;PMS5003;17137;51.494;-0.262;2023-01-31T02:35:56;9;3;
28647;PMS5003;17137;51.494;-0.262;2023-01-31T02:36:35;9;3;
28647;PMS5003;17137;51.494;-0.262;2023-01-31T02:37:18;10;3;
28647;PMS5003;17137;51.494;-0.262;2023-01-31T02:38:00;10;3;
28647;PMS5003;17137;51.494;-0.262;2023-01-31T02:38:44;10;3;
28647;PMS5003;17137;51.494;-0.262;2023-01-31T02:39:25;10;4;
28647;PMS5003;17137;51.494;-0.262;2023-01-31T02:40:06;10;4;
28647;PMS5003;17137;51.494;-0.262;2023-01-31T02:40:43;10;4;
28647;PMS5003;17137;51.494;-0.262;2023-01-31T02:41:22;11;5;
28647;PMS5003;17137;51.494;-0.262;2023-01-31T02:42:01;11;5;
28647;PMS5003;17137;51.494;-0.262;2023-01-31T02:42:42;11;5;
28647;PMS5003;17137;51.494;-0.262;2023-01-31T02:43:22;9;5;
28647;PMS5003;17137;51.494;-0.262;2023-01-31T02:44:04;9;5;
28647;PMS5003;17137;51.494;-0.262;2023-01-31T02:44:45;9;5;
28647;PMS5003;17137;51.494;-0.262;2023-01-31T02:45:24;9;4;
28647;PMS5003;17137;51.494;-0.262;2023-01-31T02:46:05;9;4;
28647;PMS5003;17137;51.494;-0.262;2023-01-31T02:46:42;9;4;
28647;PMS5003;17137;51.494;-0.262;2023-01-31T02:47:25;10;5;
28647;PMS5003;17137;51.494;-0.262;2023-01-31T02:48:03;10;5;
28647;PMS5003;17137;51.494;-0.262;2023-01-31T02:48:39;10;5;
28647;PMS5003;17137;51.494;-0.262;2023-01-31T02:49:17;8;5;
28647;PMS5003;17137;51.494;-0.262;2023-01-31T02:49:53;8;5;
28647;PMS5003;17137;51.494;-0.262;2023-01-31T02:50:32;8;5;
28647;PMS5003;17137;51.494;-0.262;2023-01-31T02:51:11;6;4;
28647;PMS5003;17137;51.494;-0.262;2023-01-31T02:51:46;6;4;
28647;PMS5003;17137;51.494;-0.262;2023-01-31T02:52:21;6;4;
28647;PMS5003;17137;51.494;-0.262;2023-01-31T02:53:02;5;4;
28647;PMS5003;17137;51.494;-0.262;2023-01-31T02:53:39;5;4;
28647;PMS5003;17137;51.494;-0.262;2023-01-31T02:54:14;5;4;
28647;PMS5003;17137;51.494;-0.262;2023-01-31T02:54:53;5;4;
28647;PMS5003;17137;51.494;-0.262;2023-01-31T02:55:30;5;4;
28647;PMS5003;17137;51.494;-0.262;2023-01-31T02:56:05;5;4;
28647;PMS5003;17137;51.494;-0.262;2023-01-31T02:56:41;5;3;
28647;PMS5003;17137;51.494;-0.262;2023-01-31T02:57:14;5;3;
28647;PMS5003;17137;51.494;-0.262;2023-01-31T02:57:47;5;3;
28647;PMS5003;17137;51.494;-0.262;2023-01-31T02:58:19;5;3;
28647;PMS5003;17137;51.494;-0.262;2023-01-31T02:58:52;5;3;
28647;PMS5003;17137;51.494;-0.262;2023-01-31T02:59:25;5;3;
28647;PMS5003;17137;51.494;-0.262;2023-01-31T02:59:55;4;3;
28647;PMS5003;17137;51.494;-0.262;2023-01-31T03:00:26;4;3;
28647;PMS5003;17137;51.494;-0.262;2023-01-31T03:01:01;4;3;
28647;PMS5003;17137;51.494;-0.262;2023-01-31T03:01:34;5;3;
28647;PMS5003;17137;51.494;-0.262;2023-01-31T03:02:07;5;3;
28647;PMS5003;17137;51.494;-0.262;2023-01-31T03:02:38;5;3;
28647;PMS5003;17137;51.494;-0.262;2023-01-31T03:03:11;5;4;
28647;PMS5003;17137;51.494;-0.262;2023-01-31T03:03:48;5;4;
28647;PMS5003;17137;51.494;-0.262;2023-01-31T03:04:19;5;4;
28647;PMS5003;17137;51.494;-0.262;2023-01-31T03:04:49;4;3;
28647;PMS5003;17137;51.494;-0.262;2023-01-31T03:05:19;4;3;
28647;PMS5003;17137;51.494;-0.262;2023-01-31T03:06:56;4;3;
28647;PMS5003;17137;51.494;-0.262;2023-01-31T03:07:32;5;2;
28647;PMS5003;17137;51.494;-0.262;2023-01-31T03:08:06;5;2;
28647;PMS5003;17137;51.494;-0.262;2023-01-31T03:08:39;5;2;
28647;PMS5003;17137;51.494;-0.262;2023-01-31T03:09:13;8;3;
28647;PMS5003;17137;51.494;-0.262;2023-01-31T03:09:51;8;3;
28647;PMS5003;17137;51.494;-0.262;2023-01-31T03:10:50;8;3;
28647;PMS5003;17137;51.494;-0.262;2023-01-31T03:11:32;8;3;
28647;PMS5003;17137;51.494;-0.262;2023-01-31T03:12:14;8;3;
28647;PMS5003;17137;51.494;-0.262;2023-01-31T03:12:53;8;3;
28647;PMS5003;17137;51.494;-0.262;2023-01-31T03:13:41;8;4;
28647;PMS5003;17137;51.494;-0.262;2023-01-31T03:14:18;8;4;
28647;PMS5003;17137;51.494;-0.262;2023-01-31T03:14:58;8;4;
28647;PMS5003;17137;51.494;-0.262;2023-01-31T03:15:40;8;4;
28647;PMS5003;17137;51.494;-0.262;2023-01-31T03:16:17;8;4;
28647;PMS5003;17137;51.494;-0.262;2023-01-31T03:16:54;8;4;
28647;PMS5003;17137;51.494;-0.262;2023-01-31T03:17:34;8;3;
28647;PMS5003;17137;51.494;-0.262;2023-01-31T03:18:16;8;3;
28647;PMS5003;17137;51.494;-0.262;2023-01-31T03:18:53;8;3;
28647;PMS5003;17137;51.494;-0.262;2023-01-31T03:19:32;5;3;
28647;PMS5003;17137;51.494;-0.262;2023-01-31T03:20:09;5;3;
28647;PMS5003;17137;51.494;-0.262;2023-01-31T03:20:44;5;3;
28647;PMS5003;17137;51.494;-0.262;2023-01-31T03:21:19;5;3;
28647;PMS5003;17137;51.494;-0.262;2023-01-31T03:21:55;5;3;
28647;PMS5003;17137;51.494;-0.262;2023-01-31T03:22:30;5;3;
28647;PMS5003;17137;51.494;-0.262;2023-01-31T03:23:05;4;2;
28647;PMS5003;17137;51.494;-0.262;2023-01-31T03:23:40;4;2;
28647;PMS5003;17137;51.494;-0.262;2023-01-31T03:24:14;4;2;
28647;PMS5003;17137;51.494;-0.262;2023-01-31T03:24:46;6;2;
28647;PMS5003;17137;51.494;-0.262;2023-01-31T03:25:20;6;2;
28647;PMS5003;17137;51.494;-0.262;2023-01-31T03:25:53;6;2;
28647;PMS5003;17137;51.494;-0.262;2023-01-31T03:26:25;5;2;
28647;PMS5003;17137;51.494;-0.262;2023-01-31T03:26:57;5;2;
28647;PMS5003;17137;51.494;-0.262;2023-01-31T03:27:30;5;2;
28647;PMS5003;17137;51.494;-0.262;2023-01-31T03:28:06;3;2;
28647;PMS5003;17137;51.494;-0.262;2023-01-31T03:28:40;3;2;
28647;PMS5003;17137;51.494;-0.262;2023-01-31T03:29:12;3;2;
28647;PMS5003;17137;51.494;-0.262;2023-01-31T03:29:44;3;2;
28647;PMS5003;17137;51.494;-0.262;2023-01-31T03:30:16;3;2;
28647;PMS5003;17137;51.494;-0.262;2023-01-31T03:30:51;3;2;
28647;PMS5003;17137;51.494;-0.262;2023-01-31T03:31:28;3;2;
28647;PMS5003;17137;51.494;-0.262;2023-01-31T03:32:06;3;2;
28647;PMS5003;17137;51.494;-0.262;2023-01-31T03:32:41;3;2;
28647;PMS5003;17137;51.494;-0.262;2023-01-31T03:33:15;4;2;
28647;PMS5003;17137;51.494;-0.262;2023-01-31T03:33:49;4;2;
28647;PMS5003;17137;51.494;-0.262;2023-01-31T03:34:22;4;2;
28647;PMS5003;17137;51.494;-0.262;2023-01-31T03:34:54;4;2;
28647;PMS5003;17137;51.494;-0.262;2023-01-31T03:35:26;4;2;
28647;PMS5003;17137;51.494;-0.262;2023-01-31T03:36:02;4;2;
28647;PMS5003;17137;51.494;-0.262;2023-01-31T03:36:38;4;3;
28647;PMS5003;17137;51.494;-0.262;2023-01-31T03:37:21;4;3;
28647;PMS5003;17137;51.494;-0.262;2023-01-31T03:37:56;4;3;
28647;PMS5003;17137;51.494;-0.262;2023-01-31T03:38:34;4;3;
28647;PMS5003;17137;51.494;-0.262;2023-01-31T03:39:13;4;3;
28647;PMS5003;17137;51.494;-0.262;2023-01-31T03:39:57;4;3;
28647;PMS5003;17137;51.494;-0.262;2023-01-31T03:40:32;4;2;
28647;PMS5003;17137;51.494;-0.262;2023-01-31T03:41:10;4;2;
28647;PMS5003;17137;51.494;-0.262;2023-01-31T03:41:51;4;2;
28647;PMS5003;17137;51.494;-0.262;2023-01-31T03:42:29;3;3;
28647;PMS5003;17137;51.494;-0.262;2023-01-31T03:43:06;3;3;
28647;PMS5003;17137;51.494;-0.262;2023-01-31T03:43:45;3;3;
28647;PMS5003;17137;51.494;-0.262;2023-01-31T03:44:25;4;4;
28647;PMS5003;17137;51.494;-0.262;2023-01-31T03:45:04;4;4;
28647;PMS5003;17137;51.494;-0.262;2023-01-31T03:45:40;4;4;
28647;PMS5003;17137;51.494;-0.262;2023-01-31T03:46:15;5;4;
28647;PMS5003;17137;51.494;-0.262;2023-01-31T03:46:52;5;4;
28647;PMS5003;17137;51.494;-0.262;2023-01-31T03:47:28;5;4;
28647;PMS5003;17137;51.494;-0.262;2023-01-31T03:48:03;5;4;
28647;PMS5003;17137;51.494;-0.262;2023-01-31T03:48:39;5;4;
28647;PMS5003;17137;51.494;-0.262;2023-01-31T03:49:13;5;4;